sensor_id;sensor_type;location;lat;lon;timestamp;pressure;altitude;pressure_sealevel;temperature;humidity
63715;BME280;49858;48.956;9.076;2023-05-10T00:00:28;98197.97;;;13.55;100.00
63715;BME280;49858;48.956;9.076;2023-05-10T00:02:56;98201.94;;;13.61;100.00
63715;BME280;49858;48.956;9.076;2023-05-10T00:05:25;98202.31;;;13.52;100.00
63715;BME280;49858;48.956;9.076;2023-05-10T00:07:53;98198.28;;;13.39;100.00
63715;BME280;49858;48.956;9.076;2023-05-10T00:10:21;98199.63;;;13.70;100.00
63715;BME280;49858;48.956;9.076;2023-05-10T00:12:49;98204.56;;;13.33;100.00
63715;BME280;49858;48.956;9.076;2023-05-10T00:15:17;98193.63;;;13.50;100.00
63715;BME280;49858;48.956;9.076;2023-05-10T00:17:44;98192.81;;;13.46;100.00
63715;BME280;49858;48.956;9.076;2023-05-10T00:20:15;98201.25;;;13.09;100.00
63715;BME280;49858;48.956;9.076;2023-05-10T00:22:45;98195.34;;;13.11;100.00
63715;BME280;49858;48.956;9.076;2023-05-10T00:25:15;98193.91;;;13.35;100.00
63715;BME280;49858;48.956;9.076;2023-05-10T00:27:43;98193.00;;;13.16;100.00
63715;BME280;49858;48.956;9.076;2023-05-10T00:30:11;98195.38;;;13.21;100.00
63715;BME280;49858;48.956;9.076;2023-05-10T00:32:39;98190.38;;;13.34;100.00
63715;BME280;49858;48.956;9.076;2023-05-10T00:35:08;98190.25;;;13.20;100.00
63715;BME280;49858;48.956;9.076;2023-05-10T00:37:36;98195.78;;;13.20;100.00
63715;BME280;49858;48.956;9.076;2023-05-10T00:40:07;98188.63;;;13.12;100.00
63715;BME280;49858;48.956;9.076;2023-05-10T00:42:34;98195.06;;;13.30;100.00
63715;BME280;49858;48.956;9.076;2023-05-10T00:45:03;98191.78;;;13.10;100.00
63715;BME280;49858;48.956;9.076;2023-05-10T00:47:31;98188.59;;;13.04;100.00
63715;BME280;49858;48.956;9.076;2023-05-10T00:50:00;98188.78;;;13.33;100.00
63715;BME280;49858;48.956;9.076;2023-05-10T00:52:28;98188.38;;;13.31;100.00
63715;BME280;49858;48.956;9.076;2023-05-10T00:54:57;98197.69;;;13.12;100.00
63715;BME280;49858;48.956;9.076;2023-05-10T00:57:27;98202.72;;;12.92;100.00
63715;BME280;49858;48.956;9.076;2023-05-10T00:59:57;98210.25;;;13.02;100.00
63715;BME280;49858;48.956;9.076;2023-05-10T01:02:25;98205.50;;;12.96;100.00
63715;BME280;49858;48.956;9.076;2023-05-10T01:04:55;98220.91;;;13.00;100.00
63715;BME280;49858;48.956;9.076;2023-05-10T01:07:23;98217.38;;;13.00;100.00
63715;BME280;49858;48.956;9.076;2023-05-10T01:09:51;98214.22;;;13.01;100.00
63715;BME280;49858;48.956;9.076;2023-05-10T01:12:18;98213.72;;;12.89;100.00
63715;BME280;49858;48.956;9.076;2023-05-10T01:14:49;98216.16;;;12.94;100.00
63715;BME280;49858;48.956;9.076;2023-05-10T01:17:17;98212.94;;;12.88;100.00
63715;BME280;49858;48.956;9.076;2023-05-10T01:19:45;98211.41;;;12.94;100.00
63715;BME280;49858;48.956;9.076;2023-05-10T01:22:28;98213.78;;;12.96;100.00
63715;BME280;49858;48.956;9.076;2023-05-10T01:25:18;98222.81;;;12.93;100.00
63715;BME280;49858;48.956;9.076;2023-05-10T01:28:22;98214.53;;;12.89;100.00
63715;BME280;49858;48.956;9.076;2023-05-10T01:34:00;98222.97;;;13.14;100.00
63715;BME280;49858;48.956;9.076;2023-05-10T01:36:31;98224.16;;;13.17;100.00
63715;BME280;49858;48.956;9.076;2023-05-10T01:39:04;98222.09;;;12.99;100.00
63715;BME280;49858;48.956;9.076;2023-05-10T01:41:40;98219.34;;;13.03;100.00
63715;BME280;49858;48.956;9.076;2023-05-10T01:44:16;98220.16;;;13.07;100.00
63715;BME280;49858;48.956;9.076;2023-05-10T01:46:49;98219.50;;;13.24;100.00
63715;BME280;49858;48.956;9.076;2023-05-10T01:49:23;98215.53;;;13.22;100.00
63715;BME280;49858;48.956;9.076;2023-05-10T01:51:53;98214.63;;;13.03;100.00
63715;BME280;49858;48.956;9.076;2023-05-10T01:54:23;98211.34;;;12.87;100.00
63715;BME280;49858;48.956;9.076;2023-05-10T01:56:55;98220.16;;;13.07;100.00
63715;BME280;49858;48.956;9.076;2023-05-10T01:59:27;98213.22;;;13.27;100.00
63715;BME280;49858;48.956;9.076;2023-05-10T02:01:58;98217.09;;;13.19;100.00
63715;BME280;49858;48.956;9.076;2023-05-10T02:04:30;98224.88;;;13.07;100.00
63715;BME280;49858;48.956;9.076;2023-05-10T02:06:59;98229.56;;;12.95;100.00
63715;BME280;49858;48.956;9.076;2023-05-10T02:09:28;98227.53;;;12.89;100.00
63715;BME280;49858;48.956;9.076;2023-05-10T02:11:59;98232.84;;;13.15;100.00
63715;BME280;49858;48.956;9.076;2023-05-10T02:14:30;98233.53;;;13.01;100.00
63715;BME280;49858;48.956;9.076;2023-05-10T02:17:00;98235.81;;;12.89;100.00
63715;BME280;49858;48.956;9.076;2023-05-10T02:19:31;98245.69;;;12.93;100.00
63715;BME280;49858;48.956;9.076;2023-05-10T02:22:00;98231.09;;;12.93;100.00
63715;BME280;49858;48.956;9.076;2023-05-10T02:24:29;98239.94;;;13.13;100.00
63715;BME280;49858;48.956;9.076;2023-05-10T02:27:00;98240.84;;;13.31;100.00
63715;BME280;49858;48.956;9.076;2023-05-10T02:29:31;98241.50;;;13.10;100.00
63715;BME280;49858;48.956;9.076;2023-05-10T02:32:00;98230.47;;;13.17;100.00
63715;BME280;49858;48.956;9.076;2023-05-10T02:34:31;98238.34;;;13.12;100.00
63715;BME280;49858;48.956;9.076;2023-05-10T02:37:01;98242.25;;;13.03;100.00
63715;BME280;49858;48.956;9.076;2023-05-10T02:39:32;98243.13;;;13.18;100.00
63715;BME280;49858;48.956;9.076;2023-05-10T02:42:00;98250.16;;;13.09;100.00
63715;BME280;49858;48.956;9.076;2023-05-10T02:44:30;98245.97;;;13.29;100.00
63715;BME280;49858;48.956;9.076;2023-05-10T02:46:59;98251.41;;;13.18;100.00
63715;BME280;49858;48.956;9.076;2023-05-10T02:49:28;98252.53;;;13.10;100.00
63715;BME280;49858;48.956;9.076;2023-05-10T02:52:00;98244.03;;;13.33;100.00
63715;BME280;49858;48.956;9.076;2023-05-10T02:54:33;98250.69;;;13.25;100.00
63715;BME280;49858;48.956;9.076;2023-05-10T02:57:04;98256.44;;;13.05;100.00
63715;BME280;49858;48.956;9.076;2023-05-10T02:59:33;98255.28;;;13.10;100.00
63715;BME280;49858;48.956;9.076;2023-05-10T03:02:01;98255.06;;;13.29;100.00
63715;BME280;49858;48.956;9.076;2023-05-10T03:04:30;98258.56;;;13.26;100.00
63715;BME280;49858;48.956;9.076;2023-05-10T03:07:00;98251.88;;;13.24;100.00
63715;BME280;49858;48.956;9.076;2023-05-10T03:09:29;98253.38;;;13.18;100.00
63715;BME280;49858;48.956;9.076;2023-05-10T03:12:02;98259.09;;;13.43;100.00
63715;BME280;49858;48.956;9.076;2023-05-10T03:14:42;98251.97;;;13.38;100.00
63715;BME280;49858;48.956;9.076;2023-05-10T03:17:19;98258.25;;;13.35;100.00
63715;BME280;49858;48.956;9.076;2023-05-10T03:19:53;98251.66;;;13.58;100.00
63715;BME280;49858;48.956;9.076;2023-05-10T03:22:27;98262.16;;;13.27;100.00
63715;BME280;49858;48.956;9.076;2023-05-10T03:25:00;98259.94;;;13.50;100.00
63715;BME280;49858;48.956;9.076;2023-05-10T03:27:31;98262.63;;;13.43;100.00
63715;BME280;49858;48.956;9.076;2023-05-10T03:30:01;98268.91;;;13.33;100.00
63715;BME280;49858;48.956;9.076;2023-05-10T03:32:32;98262.94;;;13.27;100.00
63715;BME280;49858;48.956;9.076;2023-05-10T03:35:01;98266.53;;;13.35;100.00
63715;BME280;49858;48.956;9.076;2023-05-10T03:37:35;98269.47;;;13.60;100.00
63715;BME280;49858;48.956;9.076;2023-05-10T03:40:03;98261.53;;;13.59;100.00
63715;BME280;49858;48.956;9.076;2023-05-10T03:42:36;98262.25;;;13.41;100.00
63715;BME280;49858;48.956;9.076;2023-05-10T03:45:06;98260.78;;;13.65;100.00
63715;BME280;49858;48.956;9.076;2023-05-10T03:47:34;98258.31;;;13.46;100.00
63715;BME280;49858;48.956;9.076;2023-05-10T03:50:03;98264.22;;;13.44;100.00
63715;BME280;49858;48.956;9.076;2023-05-10T03:52:31;98270.59;;;13.52;100.00
63715;BME280;49858;48.956;9.076;2023-05-10T03:55:01;98268.13;;;13.40;100.00
63715;BME280;49858;48.956;9.076;2023-05-10T03:57:30;98272.56;;;13.51;100.00
63715;BME280;49858;48.956;9.076;2023-05-10T04:00:01;98278.84;;;13.48;100.00
63715;BME280;49858;48.956;9.076;2023-05-10T04:02:40;98267.44;;;13.53;100.00
63715;BME280;49858;48.956;9.076;2023-05-10T04:05:14;98283.97;;;13.43;100.00
63715;BME280;49858;48.956;9.076;2023-05-10T04:07:42;98270.22;;;13.57;100.00
63715;BME280;49858;48.956;9.076;2023-05-10T04:10:12;98277.19;;;13.33;100.00
63715;BME280;49858;48.956;9.076;2023-05-10T04:12:40;98283.06;;;13.28;100.00
63715;BME280;49858;48.956;9.076;2023-05-10T04:15:09;98283.34;;;13.16;100.00
63715;BME280;49858;48.956;9.076;2023-05-10T04:17:36;98283.19;;;13.46;100.00
63715;BME280;49858;48.956;9.076;2023-05-10T04:20:08;98286.31;;;13.44;100.00
63715;BME280;49858;48.956;9.076;2023-05-10T04:22:37;98282.66;;;13.26;100.00
63715;BME280;49858;48.956;9.076;2023-05-10T04:25:05;98294.03;;;13.21;100.00
63715;BME280;49858;48.956;9.076;2023-05-10T04:27:35;98294.16;;;13.35;100.00
63715;BME280;49858;48.956;9.076;2023-05-10T04:30:03;98291.09;;;13.47;100.00
63715;BME280;49858;48.956;9.076;2023-05-10T04:32:31;98291.72;;;13.26;100.00
63715;BME280;49858;48.956;9.076;2023-05-10T04:34:59;98292.00;;;13.66;100.00
63715;BME280;49858;48.956;9.076;2023-05-10T04:37:29;98294.66;;;13.51;100.00
63715;BME280;49858;48.956;9.076;2023-05-10T04:39:57;98293.16;;;13.61;100.00
63715;BME280;49858;48.956;9.076;2023-05-10T04:42:26;98294.25;;;13.49;100.00
63715;BME280;49858;48.956;9.076;2023-05-10T04:44:55;98290.94;;;13.26;100.00
63715;BME280;49858;48.956;9.076;2023-05-10T04:47:23;98293.84;;;13.47;100.00
63715;BME280;49858;48.956;9.076;2023-05-10T04:49:51;98291.53;;;13.57;100.00
63715;BME280;49858;48.956;9.076;2023-05-10T04:52:19;98298.50;;;13.33;100.00
63715;BME280;49858;48.956;9.076;2023-05-10T04:54:47;98306.19;;;13.61;100.00
63715;BME280;49858;48.956;9.076;2023-05-10T04:57:14;98297.81;;;13.46;100.00
63715;BME280;49858;48.956;9.076;2023-05-10T04:59:42;98306.78;;;13.33;100.00
63715;BME280;49858;48.956;9.076;2023-05-10T05:02:11;98315.66;;;13.63;100.00
63715;BME280;49858;48.956;9.076;2023-05-10T05:04:39;98307.09;;;13.24;100.00
63715;BME280;49858;48.956;9.076;2023-05-10T05:07:07;98310.38;;;13.40;100.00
63715;BME280;49858;48.956;9.076;2023-05-10T05:09:37;98309.47;;;13.84;100.00
63715;BME280;49858;48.956;9.076;2023-05-10T05:12:05;98310.47;;;13.54;100.00
63715;BME280;49858;48.956;9.076;2023-05-10T05:14:33;98310.66;;;13.90;100.00
63715;BME280;49858;48.956;9.076;2023-05-10T05:17:01;98310.34;;;14.10;100.00
63715;BME280;49858;48.956;9.076;2023-05-10T05:19:32;98313.78;;;13.81;100.00
63715;BME280;49858;48.956;9.076;2023-05-10T05:21:59;98311.19;;;14.17;100.00
63715;BME280;49858;48.956;9.076;2023-05-10T05:24:27;98310.81;;;14.22;100.00
63715;BME280;49858;48.956;9.076;2023-05-10T05:26:55;98321.03;;;14.11;100.00
63715;BME280;49858;48.956;9.076;2023-05-10T05:29:23;98326.81;;;13.81;100.00
63715;BME280;49858;48.956;9.076;2023-05-10T05:31:51;98319.00;;;13.94;100.00
63715;BME280;49858;48.956;9.076;2023-05-10T05:34:21;98319.50;;;14.28;100.00
63715;BME280;49858;48.956;9.076;2023-05-10T05:36:50;98329.72;;;14.10;100.00
63715;BME280;49858;48.956;9.076;2023-05-10T05:39:18;98319.78;;;13.94;100.00
63715;BME280;49858;48.956;9.076;2023-05-10T05:41:46;98328.16;;;14.16;100.00
63715;BME280;49858;48.956;9.076;2023-05-10T05:44:14;98327.78;;;14.21;100.00
63715;BME280;49858;48.956;9.076;2023-05-10T05:46:42;98321.41;;;14.06;100.00
63715;BME280;49858;48.956;9.076;2023-05-10T05:49:09;98324.88;;;13.85;100.00
63715;BME280;49858;48.956;9.076;2023-05-10T05:51:37;98327.69;;;13.96;100.00
63715;BME280;49858;48.956;9.076;2023-05-10T05:54:07;98323.44;;;14.23;100.00
63715;BME280;49858;48.956;9.076;2023-05-10T05:56:35;98335.38;;;14.45;100.00
63715;BME280;49858;48.956;9.076;2023-05-10T05:59:03;98327.72;;;14.06;100.00
63715;BME280;49858;48.956;9.076;2023-05-10T06:01:31;98331.56;;;13.84;100.00
63715;BME280;49858;48.956;9.076;2023-05-10T06:03:59;98334.47;;;14.13;100.00
63715;BME280;49858;48.956;9.076;2023-05-10T06:06:27;98326.56;;;14.15;100.00
63715;BME280;49858;48.956;9.076;2023-05-10T06:08:55;98330.56;;;14.24;100.00
63715;BME280;49858;48.956;9.076;2023-05-10T06:11:24;98328.16;;;14.19;100.00
63715;BME280;49858;48.956;9.076;2023-05-10T06:13:52;98342.41;;;14.25;100.00
63715;BME280;49858;48.956;9.076;2023-05-10T06:16:20;98340.03;;;14.20;100.00
63715;BME280;49858;48.956;9.076;2023-05-10T06:18:48;98340.13;;;14.45;100.00
63715;BME280;49858;48.956;9.076;2023-05-10T06:21:16;98345.53;;;14.13;100.00
63715;BME280;49858;48.956;9.076;2023-05-10T06:23:44;98348.56;;;13.86;100.00
63715;BME280;49858;48.956;9.076;2023-05-10T06:26:12;98354.13;;;13.97;100.00
63715;BME280;49858;48.956;9.076;2023-05-10T06:28:41;98357.38;;;14.10;100.00
63715;BME280;49858;48.956;9.076;2023-05-10T06:31:09;98351.91;;;14.27;100.00
63715;BME280;49858;48.956;9.076;2023-05-10T06:33:38;98343.91;;;13.97;100.00
63715;BME280;49858;48.956;9.076;2023-05-10T06:36:06;98352.53;;;13.92;100.00
63715;BME280;49858;48.956;9.076;2023-05-10T06:38:33;98345.53;;;14.13;100.00
63715;BME280;49858;48.956;9.076;2023-05-10T06:41:01;98348.00;;;14.39;100.00
63715;BME280;49858;48.956;9.076;2023-05-10T06:43:29;98343.16;;;14.15;100.00
63715;BME280;49858;48.956;9.076;2023-05-10T06:45:59;98334.28;;;14.68;100.00
63715;BME280;49858;48.956;9.076;2023-05-10T06:48:26;98345.31;;;14.50;100.00
63715;BME280;49858;48.956;9.076;2023-05-10T06:50:54;98339.81;;;14.61;100.00
63715;BME280;49858;48.956;9.076;2023-05-10T06:53:22;98344.91;;;14.51;100.00
63715;BME280;49858;48.956;9.076;2023-05-10T06:55:50;98340.97;;;14.63;100.00
63715;BME280;49858;48.956;9.076;2023-05-10T06:58:17;98346.59;;;14.88;100.00
63715;BME280;49858;48.956;9.076;2023-05-10T07:00:45;98345.78;;;14.88;100.00
63715;BME280;49858;48.956;9.076;2023-05-10T07:03:15;98339.78;;;14.53;100.00
63715;BME280;49858;48.956;9.076;2023-05-10T07:05:43;98345.34;;;14.61;100.00
63715;BME280;49858;48.956;9.076;2023-05-10T07:08:11;98345.19;;;14.21;100.00
63715;BME280;49858;48.956;9.076;2023-05-10T07:10:39;98347.19;;;14.28;100.00
63715;BME280;49858;48.956;9.076;2023-05-10T07:13:07;98340.19;;;14.55;100.00
63715;BME280;49858;48.956;9.076;2023-05-10T07:15:36;98346.63;;;15.20;100.00
63715;BME280;49858;48.956;9.076;2023-05-10T07:18:04;98349.25;;;14.52;100.00
63715;BME280;49858;48.956;9.076;2023-05-10T07:20:34;98342.59;;;14.86;100.00
63715;BME280;49858;48.956;9.076;2023-05-10T07:23:02;98346.13;;;14.61;100.00
63715;BME280;49858;48.956;9.076;2023-05-10T07:25:30;98350.53;;;14.80;100.00
63715;BME280;49858;48.956;9.076;2023-05-10T07:27:57;98352.13;;;15.13;100.00
63715;BME280;49858;48.956;9.076;2023-05-10T07:30:25;98359.25;;;15.46;100.00
63715;BME280;49858;48.956;9.076;2023-05-10T07:32:53;98356.03;;;14.69;100.00
63715;BME280;49858;48.956;9.076;2023-05-10T07:35:21;98363.22;;;15.02;100.00
63715;BME280;49858;48.956;9.076;2023-05-10T07:37:51;98356.47;;;15.43;100.00
63715;BME280;49858;48.956;9.076;2023-05-10T07:40:19;98356.84;;;14.77;100.00
63715;BME280;49858;48.956;9.076;2023-05-10T07:42:47;98362.38;;;14.77;100.00
63715;BME280;49858;48.956;9.076;2023-05-10T07:45:15;98353.25;;;14.59;100.00
63715;BME280;49858;48.956;9.076;2023-05-10T07:47:43;98361.19;;;14.74;100.00
63715;BME280;49858;48.956;9.076;2023-05-10T07:50:11;98359.16;;;14.50;100.00
63715;BME280;49858;48.956;9.076;2023-05-10T07:52:38;98358.66;;;14.33;100.00
63715;BME280;49858;48.956;9.076;2023-05-10T07:55:09;98360.34;;;14.56;100.00
63715;BME280;49858;48.956;9.076;2023-05-10T07:57:38;98354.50;;;15.18;100.00
63715;BME280;49858;48.956;9.076;2023-05-10T08:00:07;98362.00;;;14.82;100.00
63715;BME280;49858;48.956;9.076;2023-05-10T08:02:41;98358.00;;;14.65;100.00
63715;BME280;49858;48.956;9.076;2023-05-10T08:05:11;98363.16;;;14.74;100.00
63715;BME280;49858;48.956;9.076;2023-05-10T08:07:40;98360.75;;;14.62;100.00
63715;BME280;49858;48.956;9.076;2023-05-10T08:10:10;98367.50;;;14.64;100.00
63715;BME280;49858;48.956;9.076;2023-05-10T08:12:40;98367.91;;;14.70;100.00
63715;BME280;49858;48.956;9.076;2023-05-10T08:15:09;98363.13;;;14.56;100.00
63715;BME280;49858;48.956;9.076;2023-05-10T08:17:37;98365.13;;;14.77;100.00
63715;BME280;49858;48.956;9.076;2023-05-10T08:20:05;98372.72;;;15.19;100.00
63715;BME280;49858;48.956;9.076;2023-05-10T08:22:34;98368.75;;;15.27;100.00
63715;BME280;49858;48.956;9.076;2023-05-10T08:25:02;98373.91;;;15.29;100.00
63715;BME280;49858;48.956;9.076;2023-05-10T08:27:31;98368.78;;;15.45;100.00
63715;BME280;49858;48.956;9.076;2023-05-10T08:29:59;98381.44;;;15.36;100.00
63715;BME280;49858;48.956;9.076;2023-05-10T08:32:27;98375.91;;;15.11;100.00
63715;BME280;49858;48.956;9.076;2023-05-10T08:34:55;98370.34;;;15.86;100.00
63715;BME280;49858;48.956;9.076;2023-05-10T08:37:23;98375.06;;;15.85;100.00
63715;BME280;49858;48.956;9.076;2023-05-10T08:39:51;98375.47;;;15.83;100.00
63715;BME280;49858;48.956;9.076;2023-05-10T08:42:21;98378.97;;;16.20;100.00
63715;BME280;49858;48.956;9.076;2023-05-10T08:44:55;98377.91;;;15.67;100.00
63715;BME280;49858;48.956;9.076;2023-05-10T08:47:25;98373.44;;;16.09;100.00
63715;BME280;49858;48.956;9.076;2023-05-10T08:49:53;98374.69;;;15.62;100.00
63715;BME280;49858;48.956;9.076;2023-05-10T08:52:23;98375.88;;;15.00;100.00
63715;BME280;49858;48.956;9.076;2023-05-10T08:54:53;98377.47;;;15.58;100.00
63715;BME280;49858;48.956;9.076;2023-05-10T08:57:21;98385.38;;;15.13;100.00
63715;BME280;49858;48.956;9.076;2023-05-10T08:59:49;98394.00;;;14.76;100.00
63715;BME280;49858;48.956;9.076;2023-05-10T09:02:19;98385.50;;;14.29;100.00
63715;BME280;49858;48.956;9.076;2023-05-10T09:04:48;98404.13;;;14.36;100.00
63715;BME280;49858;48.956;9.076;2023-05-10T09:07:16;98403.13;;;14.73;100.00
63715;BME280;49858;48.956;9.076;2023-05-10T09:09:45;98412.81;;;14.35;100.00
63715;BME280;49858;48.956;9.076;2023-05-10T09:12:13;98418.88;;;14.62;100.00
63715;BME280;49858;48.956;9.076;2023-05-10T09:14:43;98414.41;;;14.39;100.00
63715;BME280;49858;48.956;9.076;2023-05-10T09:17:12;98415.22;;;14.36;100.00
63715;BME280;49858;48.956;9.076;2023-05-10T09:19:41;98421.25;;;14.63;100.00
63715;BME280;49858;48.956;9.076;2023-05-10T09:22:09;98406.72;;;14.95;100.00
63715;BME280;49858;48.956;9.076;2023-05-10T09:24:37;98405.91;;;14.80;100.00
63715;BME280;49858;48.956;9.076;2023-05-10T09:27:11;98405.59;;;15.24;100.00
63715;BME280;49858;48.956;9.076;2023-05-10T09:29:39;98406.72;;;16.20;100.00
63715;BME280;49858;48.956;9.076;2023-05-10T09:32:07;98395.69;;;15.84;100.00
63715;BME280;49858;48.956;9.076;2023-05-10T09:34:35;98405.59;;;15.78;100.00
63715;BME280;49858;48.956;9.076;2023-05-10T09:37:07;98411.53;;;15.58;100.00
63715;BME280;49858;48.956;9.076;2023-05-10T09:39:36;98409.56;;;15.34;100.00
63715;BME280;49858;48.956;9.076;2023-05-10T09:42:06;98412.75;;;15.72;100.00
63715;BME280;49858;48.956;9.076;2023-05-10T09:44:34;98409.16;;;16.00;100.00
63715;BME280;49858;48.956;9.076;2023-05-10T09:47:03;98398.50;;;15.77;100.00
63715;BME280;49858;48.956;9.076;2023-05-10T09:49:31;98398.88;;;15.72;100.00
63715;BME280;49858;48.956;9.076;2023-05-10T09:52:01;98410.75;;;15.40;100.00
63715;BME280;49858;48.956;9.076;2023-05-10T09:54:31;98414.66;;;16.10;100.00
63715;BME280;49858;48.956;9.076;2023-05-10T09:56:59;98408.34;;;15.89;100.00
63715;BME280;49858;48.956;9.076;2023-05-10T09:59:28;98416.28;;;16.01;100.00
63715;BME280;49858;48.956;9.076;2023-05-10T10:01:59;98406.00;;;15.73;100.00
63715;BME280;49858;48.956;9.076;2023-05-10T10:04:27;98416.69;;;15.60;100.00
63715;BME280;49858;48.956;9.076;2023-05-10T10:06:59;98412.31;;;16.05;100.00
63715;BME280;49858;48.956;9.076;2023-05-10T10:09:28;98413.81;;;16.31;100.00
63715;BME280;49858;48.956;9.076;2023-05-10T10:11:59;98419.81;;;16.08;100.00
63715;BME280;49858;48.956;9.076;2023-05-10T10:14:27;98416.63;;;16.14;100.00
63715;BME280;49858;48.956;9.076;2023-05-10T10:16:56;98408.66;;;16.33;100.00
63715;BME280;49858;48.956;9.076;2023-05-10T10:19:27;98414.72;;;15.86;100.00
63715;BME280;49858;48.956;9.076;2023-05-10T10:21:55;98405.00;;;16.54;100.00
63715;BME280;49858;48.956;9.076;2023-05-10T10:24:23;98408.28;;;16.28;100.00
63715;BME280;49858;48.956;9.076;2023-05-10T10:26:52;98405.09;;;16.26;100.00
63715;BME280;49858;48.956;9.076;2023-05-10T10:29:35;98402.00;;;16.09;100.00
63715;BME280;49858;48.956;9.076;2023-05-10T10:32:12;98408.78;;;15.73;100.00
63715;BME280;49858;48.956;9.076;2023-05-10T10:34:46;98412.66;;;16.18;100.00
63715;BME280;49858;48.956;9.076;2023-05-10T10:37:15;98413.06;;;16.24;100.00
63715;BME280;49858;48.956;9.076;2023-05-10T10:39:43;98421.81;;;16.04;100.00
63715;BME280;49858;48.956;9.076;2023-05-10T10:42:10;98424.25;;;15.81;100.00
63715;BME280;49858;48.956;9.076;2023-05-10T10:44:39;98431.28;;;15.07;100.00
63715;BME280;49858;48.956;9.076;2023-05-10T10:47:22;98423.28;;;14.70;100.00
63715;BME280;49858;48.956;9.076;2023-05-10T10:50:03;98427.63;;;14.71;100.00
63715;BME280;49858;48.956;9.076;2023-05-10T10:52:32;98442.47;;;14.38;100.00
63715;BME280;49858;48.956;9.076;2023-05-10T10:55:04;98437.59;;;14.93;100.00
63715;BME280;49858;48.956;9.076;2023-05-10T10:57:43;98433.31;;;15.49;100.00
63715;BME280;49858;48.956;9.076;2023-05-10T11:00:26;98438.00;;;15.02;100.00
63715;BME280;49858;48.956;9.076;2023-05-10T11:02:57;98442.66;;;14.77;100.00
63715;BME280;49858;48.956;9.076;2023-05-10T11:05:36;98434.91;;;15.43;100.00
63715;BME280;49858;48.956;9.076;2023-05-10T11:08:19;98429.78;;;15.74;100.00
63715;BME280;49858;48.956;9.076;2023-05-10T11:11:05;98437.22;;;16.27;100.00
63715;BME280;49858;48.956;9.076;2023-05-10T11:13:40;98428.53;;;16.03;100.00
63715;BME280;49858;48.956;9.076;2023-05-10T11:16:17;98430.34;;;16.64;100.00
63715;BME280;49858;48.956;9.076;2023-05-10T11:19:00;98427.38;;;15.94;100.00
63715;BME280;49858;48.956;9.076;2023-05-10T11:21:29;98430.16;;;16.04;100.00
63715;BME280;49858;48.956;9.076;2023-05-10T11:23:58;98436.53;;;17.03;100.00
63715;BME280;49858;48.956;9.076;2023-05-10T11:26:31;98421.97;;;16.78;100.00
63715;BME280;49858;48.956;9.076;2023-05-10T11:29:00;98428.66;;;16.88;100.00
63715;BME280;49858;48.956;9.076;2023-05-10T11:31:31;98420.44;;;16.59;100.00
63715;BME280;49858;48.956;9.076;2023-05-10T11:33:59;98430.31;;;16.74;100.00
63715;BME280;49858;48.956;9.076;2023-05-10T11:36:35;98430.47;;;16.31;100.00
63715;BME280;49858;48.956;9.076;2023-05-10T11:39:04;98453.44;;;16.39;100.00
63715;BME280;49858;48.956;9.076;2023-05-10T11:41:32;98446.78;;;15.62;100.00
63715;BME280;49858;48.956;9.076;2023-05-10T11:44:00;98443.50;;;16.45;100.00
63715;BME280;49858;48.956;9.076;2023-05-10T11:46:28;98435.19;;;16.42;100.00
63715;BME280;49858;48.956;9.076;2023-05-10T11:48:59;98429.88;;;16.83;100.00
63715;BME280;49858;48.956;9.076;2023-05-10T11:51:33;98433.31;;;16.10;100.00
63715;BME280;49858;48.956;9.076;2023-05-10T11:54:06;98428.31;;;16.78;100.00
63715;BME280;49858;48.956;9.076;2023-05-10T11:56:33;98432.13;;;15.93;100.00
63715;BME280;49858;48.956;9.076;2023-05-10T11:59:01;98443.63;;;15.84;100.00
63715;BME280;49858;48.956;9.076;2023-05-10T12:01:30;98441.63;;;16.06;100.00
63715;BME280;49858;48.956;9.076;2023-05-10T12:04:00;98439.44;;;16.75;100.00
63715;BME280;49858;48.956;9.076;2023-05-10T12:06:29;98433.53;;;16.58;100.00
63715;BME280;49858;48.956;9.076;2023-05-10T12:08:58;98434.75;;;16.57;100.00
63715;BME280;49858;48.956;9.076;2023-05-10T12:11:27;98431.69;;;16.09;100.00
63715;BME280;49858;48.956;9.076;2023-05-10T12:13:55;98428.97;;;15.91;100.00
63715;BME280;49858;48.956;9.076;2023-05-10T12:16:24;98438.44;;;16.15;100.00
63715;BME280;49858;48.956;9.076;2023-05-10T12:18:55;98438.44;;;16.19;100.00
63715;BME280;49858;48.956;9.076;2023-05-10T12:21:25;98450.25;;;16.48;100.00
63715;BME280;49858;48.956;9.076;2023-05-10T12:23:58;98447.97;;;16.03;100.00
63715;BME280;49858;48.956;9.076;2023-05-10T12:26:27;98447.16;;;15.99;100.00
63715;BME280;49858;48.956;9.076;2023-05-10T12:29:11;98449.38;;;16.69;100.00
63715;BME280;49858;48.956;9.076;2023-05-10T12:31:50;98442.41;;;16.10;100.00
63715;BME280;49858;48.956;9.076;2023-05-10T12:34:25;98448.75;;;16.15;100.00
63715;BME280;49858;48.956;9.076;2023-05-10T12:36:55;98456.31;;;15.75;100.00
63715;BME280;49858;48.956;9.076;2023-05-10T12:39:23;98447.16;;;16.21;100.00
63715;BME280;49858;48.956;9.076;2023-05-10T12:41:51;98451.56;;;16.00;100.00
63715;BME280;49858;48.956;9.076;2023-05-10T12:44:19;98456.63;;;16.38;100.00
63715;BME280;49858;48.956;9.076;2023-05-10T12:46:46;98459.06;;;16.14;100.00
63715;BME280;49858;48.956;9.076;2023-05-10T12:49:14;98451.13;;;16.16;100.00
63715;BME280;49858;48.956;9.076;2023-05-10T12:51:43;98456.56;;;16.55;100.00
63715;BME280;49858;48.956;9.076;2023-05-10T12:54:12;98457.75;;;16.54;100.00
63715;BME280;49858;48.956;9.076;2023-05-10T12:56:40;98457.47;;;16.02;100.00
63715;BME280;49858;48.956;9.076;2023-05-10T12:59:09;98456.72;;;15.91;100.00
63715;BME280;49858;48.956;9.076;2023-05-10T13:01:36;98453.53;;;15.53;100.00
63715;BME280;49858;48.956;9.076;2023-05-10T13:04:05;98464.25;;;15.87;100.00
63715;BME280;49858;48.956;9.076;2023-05-10T13:06:32;98461.47;;;15.69;100.00